Terminal Aerodrome Forecast
Issued by NWS

Home | Current Version | Previous Version | Text Only | Print | Product List | Glossary On
Versions: 1 2 3 4 5 6 7 8 9 10 11 12 13 14 15 16 17
000
FTUS45 KABQ 241728
TAFGUP
TAF
KGUP 241728Z 2418/2518 25009G19KT P6SM VCSH BKN040 BKN070
     FM242100 26012G20KT P6SM VCTS BKN050CB
     FM250200 23009KT P6SM SCT060
     FM250800 21005KT P6SM BKN050=

USA.gov is the U.S. government's official web portal to all federal, state and local government web resources and services.